sensor_id;sensor_type;location;lat;lon;timestamp;temperature;humidity
60313;DHT22;46158;52.850;6.970;2023-11-22T00:00:20;15.20;85.00
60313;DHT22;46158;52.850;6.970;2023-11-22T00:02:46;15.20;84.90
60313;DHT22;46158;52.850;6.970;2023-11-22T00:05:13;15.20;84.90
60313;DHT22;46158;52.850;6.970;2023-11-22T00:07:39;15.20;84.90
60313;DHT22;46158;52.850;6.970;2023-11-22T00:10:05;15.10;84.80
60313;DHT22;46158;52.850;6.970;2023-11-22T00:12:31;15.10;84.80
60313;DHT22;46158;52.850;6.970;2023-11-22T00:15:03;15.10;84.80
60313;DHT22;46158;52.850;6.970;2023-11-22T00:17:31;15.10;84.80
60313;DHT22;46158;52.850;6.970;2023-11-22T00:19:57;15.10;84.80
60313;DHT22;46158;52.850;6.970;2023-11-22T00:22:23;15.10;84.80
60313;DHT22;46158;52.850;6.970;2023-11-22T00:24:49;15.00;84.70
60313;DHT22;46158;52.850;6.970;2023-11-22T00:27:16;15.00;84.70
60313;DHT22;46158;52.850;6.970;2023-11-22T00:29:41;15.00;84.80
60313;DHT22;46158;52.850;6.970;2023-11-22T00:32:07;15.00;84.70
60313;DHT22;46158;52.850;6.970;2023-11-22T00:34:33;15.00;84.70
60313;DHT22;46158;52.850;6.970;2023-11-22T00:36:59;15.00;84.70
60313;DHT22;46158;52.850;6.970;2023-11-22T00:39:24;15.00;84.60
60313;DHT22;46158;52.850;6.970;2023-11-22T00:41:50;15.00;84.60
60313;DHT22;46158;52.850;6.970;2023-11-22T00:44:16;14.90;84.50
60313;DHT22;46158;52.850;6.970;2023-11-22T00:46:42;14.90;84.50
60313;DHT22;46158;52.850;6.970;2023-11-22T00:49:07;14.90;84.50
60313;DHT22;46158;52.850;6.970;2023-11-22T00:51:36;14.90;84.40
60313;DHT22;46158;52.850;6.970;2023-11-22T00:54:02;14.90;84.30
60313;DHT22;46158;52.850;6.970;2023-11-22T00:56:27;14.90;84.30
60313;DHT22;46158;52.850;6.970;2023-11-22T00:58:56;14.90;84.30
60313;DHT22;46158;52.850;6.970;2023-11-22T01:01:25;14.90;84.20
60313;DHT22;46158;52.850;6.970;2023-11-22T01:03:51;14.90;84.30
60313;DHT22;46158;52.850;6.970;2023-11-22T01:06:17;14.80;84.20
60313;DHT22;46158;52.850;6.970;2023-11-22T01:08:44;14.80;84.20
60313;DHT22;46158;52.850;6.970;2023-11-22T01:11:09;14.80;84.20
60313;DHT22;46158;52.850;6.970;2023-11-22T01:13:35;14.80;84.10
60313;DHT22;46158;52.850;6.970;2023-11-22T01:16:11;14.80;84.10
60313;DHT22;46158;52.850;6.970;2023-11-22T01:18:38;14.80;84.10
60313;DHT22;46158;52.850;6.970;2023-11-22T01:21:04;14.80;84.20
60313;DHT22;46158;52.850;6.970;2023-11-22T01:23:30;14.80;84.10
60313;DHT22;46158;52.850;6.970;2023-11-22T01:25:58;14.80;84.10
60313;DHT22;46158;52.850;6.970;2023-11-22T01:28:24;14.80;84.10
60313;DHT22;46158;52.850;6.970;2023-11-22T01:30:53;14.70;84.10
60313;DHT22;46158;52.850;6.970;2023-11-22T01:33:22;14.70;84.10
60313;DHT22;46158;52.850;6.970;2023-11-22T01:35:48;14.70;84.10
60313;DHT22;46158;52.850;6.970;2023-11-22T01:38:16;14.70;84.10
60313;DHT22;46158;52.850;6.970;2023-11-22T01:40:46;14.70;84.10
60313;DHT22;46158;52.850;6.970;2023-11-22T01:43:17;14.70;84.00
60313;DHT22;46158;52.850;6.970;2023-11-22T01:45:43;14.70;84.70
60313;DHT22;46158;52.850;6.970;2023-11-22T01:48:11;14.60;84.10
60313;DHT22;46158;52.850;6.970;2023-11-22T01:50:38;14.60;84.00
60313;DHT22;46158;52.850;6.970;2023-11-22T01:53:07;14.70;84.00
60313;DHT22;46158;52.850;6.970;2023-11-22T01:55:34;14.60;84.00
60313;DHT22;46158;52.850;6.970;2023-11-22T01:58:00;14.60;84.00
60313;DHT22;46158;52.850;6.970;2023-11-22T02:00:32;14.60;83.90
60313;DHT22;46158;52.850;6.970;2023-11-22T02:02:58;14.60;83.90
60313;DHT22;46158;52.850;6.970;2023-11-22T02:05:25;14.60;84.00
60313;DHT22;46158;52.850;6.970;2023-11-22T02:07:51;14.50;84.10
60313;DHT22;46158;52.850;6.970;2023-11-22T02:10:18;14.60;84.00
60313;DHT22;46158;52.850;6.970;2023-11-22T02:12:44;14.50;83.90
60313;DHT22;46158;52.850;6.970;2023-11-22T02:15:13;14.50;83.90
60313;DHT22;46158;52.850;6.970;2023-11-22T02:17:39;14.50;83.90
60313;DHT22;46158;52.850;6.970;2023-11-22T02:20:05;14.50;83.90
60313;DHT22;46158;52.850;6.970;2023-11-22T02:22:42;14.60;84.00
60313;DHT22;46158;52.850;6.970;2023-11-22T02:25:08;14.50;84.00
60313;DHT22;46158;52.850;6.970;2023-11-22T02:27:35;14.50;83.90
60313;DHT22;46158;52.850;6.970;2023-11-22T02:30:03;14.50;83.90
60313;DHT22;46158;52.850;6.970;2023-11-22T02:32:31;14.50;83.90
60313;DHT22;46158;52.850;6.970;2023-11-22T02:34:57;14.50;83.90
60313;DHT22;46158;52.850;6.970;2023-11-22T02:37:23;14.50;83.90
60313;DHT22;46158;52.850;6.970;2023-11-22T02:40:26;14.50;83.90
60313;DHT22;46158;52.850;6.970;2023-11-22T02:42:53;14.50;83.70
60313;DHT22;46158;52.850;6.970;2023-11-22T02:45:27;14.50;83.80
60313;DHT22;46158;52.850;6.970;2023-11-22T02:47:53;14.50;83.80
60313;DHT22;46158;52.850;6.970;2023-11-22T02:50:19;14.50;83.70
60313;DHT22;46158;52.850;6.970;2023-11-22T02:52:45;14.40;83.60
60313;DHT22;46158;52.850;6.970;2023-11-22T02:55:11;14.40;83.60
60313;DHT22;46158;52.850;6.970;2023-11-22T02:57:38;14.40;83.60
60313;DHT22;46158;52.850;6.970;2023-11-22T03:00:06;14.50;83.60
60313;DHT22;46158;52.850;6.970;2023-11-22T03:02:33;14.40;83.60
60313;DHT22;46158;52.850;6.970;2023-11-22T03:04:59;14.40;83.50
60313;DHT22;46158;52.850;6.970;2023-11-22T03:07:26;14.40;83.50
60313;DHT22;46158;52.850;6.970;2023-11-22T03:09:52;14.40;83.50
60313;DHT22;46158;52.850;6.970;2023-11-22T03:12:19;14.40;84.20
60313;DHT22;46158;52.850;6.970;2023-11-22T03:14:46;14.40;83.50
60313;DHT22;46158;52.850;6.970;2023-11-22T03:17:12;14.40;83.50
60313;DHT22;46158;52.850;6.970;2023-11-22T03:19:39;14.40;83.50
60313;DHT22;46158;52.850;6.970;2023-11-22T03:22:06;14.40;83.50
60313;DHT22;46158;52.850;6.970;2023-11-22T03:24:32;14.40;83.50
60313;DHT22;46158;52.850;6.970;2023-11-22T03:27:02;14.40;83.40
60313;DHT22;46158;52.850;6.970;2023-11-22T03:29:29;14.40;83.50
60313;DHT22;46158;52.850;6.970;2023-11-22T03:31:55;14.40;83.40
60313;DHT22;46158;52.850;6.970;2023-11-22T03:34:21;14.40;83.40
60313;DHT22;46158;52.850;6.970;2023-11-22T03:36:47;14.40;83.40
60313;DHT22;46158;52.850;6.970;2023-11-22T03:39:13;14.40;83.40
60313;DHT22;46158;52.850;6.970;2023-11-22T03:41:41;14.30;83.40
60313;DHT22;46158;52.850;6.970;2023-11-22T03:44:07;14.30;83.40
60313;DHT22;46158;52.850;6.970;2023-11-22T03:46:37;14.40;83.40
60313;DHT22;46158;52.850;6.970;2023-11-22T03:49:04;14.30;83.40
60313;DHT22;46158;52.850;6.970;2023-11-22T03:51:32;14.40;83.40
60313;DHT22;46158;52.850;6.970;2023-11-22T03:53:58;14.40;83.40
60313;DHT22;46158;52.850;6.970;2023-11-22T03:56:23;14.40;83.40
60313;DHT22;46158;52.850;6.970;2023-11-22T03:58:49;14.40;83.40
60313;DHT22;46158;52.850;6.970;2023-11-22T04:01:15;14.40;83.40
60313;DHT22;46158;52.850;6.970;2023-11-22T04:03:44;14.40;83.40
60313;DHT22;46158;52.850;6.970;2023-11-22T04:06:10;14.40;83.40
60313;DHT22;46158;52.850;6.970;2023-11-22T04:08:36;14.40;83.30
60313;DHT22;46158;52.850;6.970;2023-11-22T04:11:04;14.40;83.30
60313;DHT22;46158;52.850;6.970;2023-11-22T04:13:31;14.40;83.20
60313;DHT22;46158;52.850;6.970;2023-11-22T04:15:57;14.40;83.20
60313;DHT22;46158;52.850;6.970;2023-11-22T04:18:23;14.40;83.20
60313;DHT22;46158;52.850;6.970;2023-11-22T04:20:50;14.40;83.20
60313;DHT22;46158;52.850;6.970;2023-11-22T04:23:15;14.40;83.20
60313;DHT22;46158;52.850;6.970;2023-11-22T04:25:47;14.30;83.10
60313;DHT22;46158;52.850;6.970;2023-11-22T04:28:15;14.40;83.20
60313;DHT22;46158;52.850;6.970;2023-11-22T04:30:41;14.30;83.00
60313;DHT22;46158;52.850;6.970;2023-11-22T04:33:07;14.40;83.10
60313;DHT22;46158;52.850;6.970;2023-11-22T04:35:33;14.40;83.10
60313;DHT22;46158;52.850;6.970;2023-11-22T04:38:03;14.40;83.00
60313;DHT22;46158;52.850;6.970;2023-11-22T04:40:29;14.40;83.10
60313;DHT22;46158;52.850;6.970;2023-11-22T04:42:55;14.40;83.10
60313;DHT22;46158;52.850;6.970;2023-11-22T04:45:21;14.40;83.00
60313;DHT22;46158;52.850;6.970;2023-11-22T04:47:47;14.40;83.00
60313;DHT22;46158;52.850;6.970;2023-11-22T04:50:12;14.40;83.00
60313;DHT22;46158;52.850;6.970;2023-11-22T04:52:38;14.40;83.00
60313;DHT22;46158;52.850;6.970;2023-11-22T04:55:05;14.40;82.90
60313;DHT22;46158;52.850;6.970;2023-11-22T04:57:31;14.40;82.90
60313;DHT22;46158;52.850;6.970;2023-11-22T04:59:56;14.40;82.90
60313;DHT22;46158;52.850;6.970;2023-11-22T05:02:22;14.40;82.80
60313;DHT22;46158;52.850;6.970;2023-11-22T05:04:48;14.50;82.80
60313;DHT22;46158;52.850;6.970;2023-11-22T05:07:15;14.50;82.80
60313;DHT22;46158;52.850;6.970;2023-11-22T05:09:41;14.50;82.70
60313;DHT22;46158;52.850;6.970;2023-11-22T05:12:09;14.50;82.70
60313;DHT22;46158;52.850;6.970;2023-11-22T05:14:36;14.60;82.70
60313;DHT22;46158;52.850;6.970;2023-11-22T05:17:02;14.60;82.60
60313;DHT22;46158;52.850;6.970;2023-11-22T05:19:28;14.60;82.60
60313;DHT22;46158;52.850;6.970;2023-11-22T05:21:53;14.60;82.50
60313;DHT22;46158;52.850;6.970;2023-11-22T05:24:19;14.60;82.50
60313;DHT22;46158;52.850;6.970;2023-11-22T05:26:45;14.60;82.50
60313;DHT22;46158;52.850;6.970;2023-11-22T05:29:10;14.70;82.60
60313;DHT22;46158;52.850;6.970;2023-11-22T05:31:36;14.70;82.60
60313;DHT22;46158;52.850;6.970;2023-11-22T05:34:03;14.70;82.70
60313;DHT22;46158;52.850;6.970;2023-11-22T05:36:32;14.70;82.90
60313;DHT22;46158;52.850;6.970;2023-11-22T05:38:57;14.60;83.60
60313;DHT22;46158;52.850;6.970;2023-11-22T05:41:29;14.60;83.10
60313;DHT22;46158;52.850;6.970;2023-11-22T05:43:54;14.60;83.20
60313;DHT22;46158;52.850;6.970;2023-11-22T05:46:21;14.50;83.30
60313;DHT22;46158;52.850;6.970;2023-11-22T05:48:56;14.60;83.50
60313;DHT22;46158;52.850;6.970;2023-11-22T05:51:22;14.60;83.50
60313;DHT22;46158;52.850;6.970;2023-11-22T05:53:47;14.50;83.60
60313;DHT22;46158;52.850;6.970;2023-11-22T05:56:13;14.60;83.80
60313;DHT22;46158;52.850;6.970;2023-11-22T05:58:40;14.50;83.90
60313;DHT22;46158;52.850;6.970;2023-11-22T06:01:06;14.50;83.90
60313;DHT22;46158;52.850;6.970;2023-11-22T06:03:33;14.50;84.10
60313;DHT22;46158;52.850;6.970;2023-11-22T06:05:59;14.50;84.10
60313;DHT22;46158;52.850;6.970;2023-11-22T06:08:25;14.50;84.20
60313;DHT22;46158;52.850;6.970;2023-11-22T06:10:51;14.50;84.30
60313;DHT22;46158;52.850;6.970;2023-11-22T06:13:19;14.50;84.40
60313;DHT22;46158;52.850;6.970;2023-11-22T06:15:45;14.60;84.50
60313;DHT22;46158;52.850;6.970;2023-11-22T06:18:11;14.60;84.50
60313;DHT22;46158;52.850;6.970;2023-11-22T06:20:39;14.60;84.60
60313;DHT22;46158;52.850;6.970;2023-11-22T06:23:05;14.60;84.60
60313;DHT22;46158;52.850;6.970;2023-11-22T06:25:31;14.60;84.70
60313;DHT22;46158;52.850;6.970;2023-11-22T06:27:56;14.60;84.80
60313;DHT22;46158;52.850;6.970;2023-11-22T06:30:22;14.60;84.90
60313;DHT22;46158;52.850;6.970;2023-11-22T06:32:50;14.60;84.90
60313;DHT22;46158;52.850;6.970;2023-11-22T06:35:16;14.60;85.00
60313;DHT22;46158;52.850;6.970;2023-11-22T06:37:43;14.60;85.00
60313;DHT22;46158;52.850;6.970;2023-11-22T06:40:13;14.60;85.10
60313;DHT22;46158;52.850;6.970;2023-11-22T06:42:42;14.60;85.10
60313;DHT22;46158;52.850;6.970;2023-11-22T06:45:08;14.60;85.20
60313;DHT22;46158;52.850;6.970;2023-11-22T06:47:42;14.60;85.30
60313;DHT22;46158;52.850;6.970;2023-11-22T06:50:08;14.60;85.30
60313;DHT22;46158;52.850;6.970;2023-11-22T06:52:38;14.60;85.30
60313;DHT22;46158;52.850;6.970;2023-11-22T06:55:08;14.70;85.40
60313;DHT22;46158;52.850;6.970;2023-11-22T06:57:34;14.60;85.30
60313;DHT22;46158;52.850;6.970;2023-11-22T07:00:00;14.60;85.30
60313;DHT22;46158;52.850;6.970;2023-11-22T07:02:27;14.60;85.30
60313;DHT22;46158;52.850;6.970;2023-11-22T07:04:52;14.70;85.30
60313;DHT22;46158;52.850;6.970;2023-11-22T07:07:18;14.70;85.30
60313;DHT22;46158;52.850;6.970;2023-11-22T07:09:45;14.70;85.30
60313;DHT22;46158;52.850;6.970;2023-11-22T07:12:12;14.70;85.30
60313;DHT22;46158;52.850;6.970;2023-11-22T07:14:38;14.70;85.20
60313;DHT22;46158;52.850;6.970;2023-11-22T07:17:04;14.70;85.20
60313;DHT22;46158;52.850;6.970;2023-11-22T07:19:32;14.70;85.10
60313;DHT22;46158;52.850;6.970;2023-11-22T07:22:00;14.70;85.00
60313;DHT22;46158;52.850;6.970;2023-11-22T07:24:30;14.70;84.90
60313;DHT22;46158;52.850;6.970;2023-11-22T07:26:59;14.70;84.90
60313;DHT22;46158;52.850;6.970;2023-11-22T07:29:26;14.70;85.00
60313;DHT22;46158;52.850;6.970;2023-11-22T07:31:54;14.80;85.00
60313;DHT22;46158;52.850;6.970;2023-11-22T07:34:22;14.80;85.70
60313;DHT22;46158;52.850;6.970;2023-11-22T07:36:49;14.80;85.00
60313;DHT22;46158;52.850;6.970;2023-11-22T07:39:16;14.80;85.10
60313;DHT22;46158;52.850;6.970;2023-11-22T07:41:44;14.80;85.10
60313;DHT22;46158;52.850;6.970;2023-11-22T07:44:11;14.80;85.10
60313;DHT22;46158;52.850;6.970;2023-11-22T07:46:37;14.80;85.20
60313;DHT22;46158;52.850;6.970;2023-11-22T07:49:02;14.80;85.10
60313;DHT22;46158;52.850;6.970;2023-11-22T07:51:28;14.80;85.10
60313;DHT22;46158;52.850;6.970;2023-11-22T07:53:54;14.80;84.70
60313;DHT22;46158;52.850;6.970;2023-11-22T07:56:21;14.80;84.20
60313;DHT22;46158;52.850;6.970;2023-11-22T07:58:47;14.70;83.90
60313;DHT22;46158;52.850;6.970;2023-11-22T08:01:12;14.70;83.80
60313;DHT22;46158;52.850;6.970;2023-11-22T08:03:39;14.60;83.90
60313;DHT22;46158;52.850;6.970;2023-11-22T08:06:09;14.60;83.90
60313;DHT22;46158;52.850;6.970;2023-11-22T08:08:36;14.60;83.80
60313;DHT22;46158;52.850;6.970;2023-11-22T08:11:05;14.60;83.70
60313;DHT22;46158;52.850;6.970;2023-11-22T08:13:40;14.70;83.80
60313;DHT22;46158;52.850;6.970;2023-11-22T08:16:06;14.70;83.80
60313;DHT22;46158;52.850;6.970;2023-11-22T08:18:32;14.80;83.90
60313;DHT22;46158;52.850;6.970;2023-11-22T08:20:58;14.90;83.90
60313;DHT22;46158;52.850;6.970;2023-11-22T08:23:24;15.00;83.60
60313;DHT22;46158;52.850;6.970;2023-11-22T08:25:52;15.10;83.60
60313;DHT22;46158;52.850;6.970;2023-11-22T08:28:18;15.10;83.70
60313;DHT22;46158;52.850;6.970;2023-11-22T08:30:44;15.00;83.70
60313;DHT22;46158;52.850;6.970;2023-11-22T08:33:10;15.10;83.70
60313;DHT22;46158;52.850;6.970;2023-11-22T08:35:36;15.10;83.70
60313;DHT22;46158;52.850;6.970;2023-11-22T08:38:02;15.00;83.50
60313;DHT22;46158;52.850;6.970;2023-11-22T08:40:29;15.00;83.50
60313;DHT22;46158;52.850;6.970;2023-11-22T08:42:54;15.10;83.60
60313;DHT22;46158;52.850;6.970;2023-11-22T08:45:20;15.10;83.60
60313;DHT22;46158;52.850;6.970;2023-11-22T08:47:46;15.10;83.50
60313;DHT22;46158;52.850;6.970;2023-11-22T08:50:12;15.10;83.40
60313;DHT22;46158;52.850;6.970;2023-11-22T08:52:38;15.00;83.20
60313;DHT22;46158;52.850;6.970;2023-11-22T08:55:05;15.00;83.00
60313;DHT22;46158;52.850;6.970;2023-11-22T08:57:35;15.00;83.00
60313;DHT22;46158;52.850;6.970;2023-11-22T09:00:01;15.00;83.00
60313;DHT22;46158;52.850;6.970;2023-11-22T09:02:32;15.00;83.00
60313;DHT22;46158;52.850;6.970;2023-11-22T09:04:58;15.00;83.10
60313;DHT22;46158;52.850;6.970;2023-11-22T09:07:24;14.90;83.10
60313;DHT22;46158;52.850;6.970;2023-11-22T09:09:49;14.90;83.20
60313;DHT22;46158;52.850;6.970;2023-11-22T09:12:17;14.90;83.20
60313;DHT22;46158;52.850;6.970;2023-11-22T09:14:45;14.90;83.30
60313;DHT22;46158;52.850;6.970;2023-11-22T09:17:14;14.80;83.40
60313;DHT22;46158;52.850;6.970;2023-11-22T09:19:40;14.80;83.40
60313;DHT22;46158;52.850;6.970;2023-11-22T09:22:06;14.80;83.50
60313;DHT22;46158;52.850;6.970;2023-11-22T09:24:32;14.80;83.60
60313;DHT22;46158;52.850;6.970;2023-11-22T09:26:59;14.80;83.70
60313;DHT22;46158;52.850;6.970;2023-11-22T09:29:26;14.80;83.80
60313;DHT22;46158;52.850;6.970;2023-11-22T09:31:52;14.80;83.90
60313;DHT22;46158;52.850;6.970;2023-11-22T09:34:17;14.80;84.00
60313;DHT22;46158;52.850;6.970;2023-11-22T09:36:43;14.80;84.10
60313;DHT22;46158;52.850;6.970;2023-11-22T09:39:09;14.80;84.30
60313;DHT22;46158;52.850;6.970;2023-11-22T09:41:35;14.80;85.10
60313;DHT22;46158;52.850;6.970;2023-11-22T09:44:01;14.80;84.50
60313;DHT22;46158;52.850;6.970;2023-11-22T09:46:27;14.80;84.60
60313;DHT22;46158;52.850;6.970;2023-11-22T09:48:56;14.80;84.60
60313;DHT22;46158;52.850;6.970;2023-11-22T09:51:28;14.80;84.70
60313;DHT22;46158;52.850;6.970;2023-11-22T09:53:59;14.80;84.80
60313;DHT22;46158;52.850;6.970;2023-11-22T09:56:27;14.80;84.80
60313;DHT22;46158;52.850;6.970;2023-11-22T09:58:54;14.80;84.90
60313;DHT22;46158;52.850;6.970;2023-11-22T10:01:22;14.80;85.00
60313;DHT22;46158;52.850;6.970;2023-11-22T10:03:49;14.80;85.10
60313;DHT22;46158;52.850;6.970;2023-11-22T10:06:14;14.80;85.10
60313;DHT22;46158;52.850;6.970;2023-11-22T10:08:41;14.80;85.10
60313;DHT22;46158;52.850;6.970;2023-11-22T10:11:07;14.80;85.10
60313;DHT22;46158;52.850;6.970;2023-11-22T10:13:33;14.80;85.10
60313;DHT22;46158;52.850;6.970;2023-11-22T10:16:14;14.80;85.10
60313;DHT22;46158;52.850;6.970;2023-11-22T10:18:45;14.80;85.10
60313;DHT22;46158;52.850;6.970;2023-11-22T10:21:26;14.80;86.00
60313;DHT22;46158;52.850;6.970;2023-11-22T10:23:56;14.90;85.40
60313;DHT22;46158;52.850;6.970;2023-11-22T10:26:23;14.90;85.70
60313;DHT22;46158;52.850;6.970;2023-11-22T10:28:53;14.90;86.00
60313;DHT22;46158;52.850;6.970;2023-11-22T10:31:19;14.90;85.90
60313;DHT22;46158;52.850;6.970;2023-11-22T10:33:47;14.90;86.00
60313;DHT22;46158;52.850;6.970;2023-11-22T10:36:14;14.90;86.00
60313;DHT22;46158;52.850;6.970;2023-11-22T10:38:41;14.90;86.00
60313;DHT22;46158;52.850;6.970;2023-11-22T10:41:08;15.00;86.10
60313;DHT22;46158;52.850;6.970;2023-11-22T10:43:37;15.00;86.10
60313;DHT22;46158;52.850;6.970;2023-11-22T10:46:03;14.90;86.10
60313;DHT22;46158;52.850;6.970;2023-11-22T10:48:31;14.90;85.90
60313;DHT22;46158;52.850;6.970;2023-11-22T10:51:01;14.90;85.90
60313;DHT22;46158;52.850;6.970;2023-11-22T10:53:37;15.00;86.20
60313;DHT22;46158;52.850;6.970;2023-11-22T10:58:33;15.00;86.90
60313;DHT22;46158;52.850;6.970;2023-11-22T11:01:01;15.00;86.90
60313;DHT22;46158;52.850;6.970;2023-11-22T11:03:37;15.00;87.10
60313;DHT22;46158;52.850;6.970;2023-11-22T11:06:08;15.00;87.10
60313;DHT22;46158;52.850;6.970;2023-11-22T11:08:40;15.00;87.20
60313;DHT22;46158;52.850;6.970;2023-11-22T11:11:07;15.00;87.20
60313;DHT22;46158;52.850;6.970;2023-11-22T11:13:33;15.00;87.40
60313;DHT22;46158;52.850;6.970;2023-11-22T11:15:59;15.10;87.40
60313;DHT22;46158;52.850;6.970;2023-11-22T11:18:26;15.10;87.60
60313;DHT22;46158;52.850;6.970;2023-11-22T11:20:56;15.10;87.60
60313;DHT22;46158;52.850;6.970;2023-11-22T11:23:25;15.10;87.60
60313;DHT22;46158;52.850;6.970;2023-11-22T11:25:56;15.10;87.60
60313;DHT22;46158;52.850;6.970;2023-11-22T11:28:23;15.10;87.10
60313;DHT22;46158;52.850;6.970;2023-11-22T11:30:53;15.10;87.20
60313;DHT22;46158;52.850;6.970;2023-11-22T11:33:27;15.10;87.30
60313;DHT22;46158;52.850;6.970;2023-11-22T11:35:56;15.10;85.80
60313;DHT22;46158;52.850;6.970;2023-11-22T11:38:30;15.10;85.30
60313;DHT22;46158;52.850;6.970;2023-11-22T11:41:09;15.00;85.00
60313;DHT22;46158;52.850;6.970;2023-11-22T11:43:55;15.00;84.90
60313;DHT22;46158;52.850;6.970;2023-11-22T11:46:21;15.00;84.90
60313;DHT22;46158;52.850;6.970;2023-11-22T11:48:55;15.00;84.90
60313;DHT22;46158;52.850;6.970;2023-11-22T11:51:25;15.00;85.00
60313;DHT22;46158;52.850;6.970;2023-11-22T11:53:53;15.00;85.10
60313;DHT22;46158;52.850;6.970;2023-11-22T11:56:19;15.00;85.10
60313;DHT22;46158;52.850;6.970;2023-11-22T11:58:46;15.00;85.10
60313;DHT22;46158;52.850;6.970;2023-11-22T12:01:13;15.00;85.00
60313;DHT22;46158;52.850;6.970;2023-11-22T12:03:39;15.00;85.00
60313;DHT22;46158;52.850;6.970;2023-11-22T12:06:06;15.00;85.00
60313;DHT22;46158;52.850;6.970;2023-11-22T12:08:32;15.00;84.80
60313;DHT22;46158;52.850;6.970;2023-11-22T12:11:02;15.00;84.80
60313;DHT22;46158;52.850;6.970;2023-11-22T12:13:30;15.00;84.90
60313;DHT22;46158;52.850;6.970;2023-11-22T12:15:57;15.00;84.90
60313;DHT22;46158;52.850;6.970;2023-11-22T12:18:23;15.00;84.80
60313;DHT22;46158;52.850;6.970;2023-11-22T12:20:56;15.00;84.80
60313;DHT22;46158;52.850;6.970;2023-11-22T12:23:27;15.00;84.80
60313;DHT22;46158;52.850;6.970;2023-11-22T12:25:53;15.00;84.80
60313;DHT22;46158;52.850;6.970;2023-11-22T12:28:22;15.00;85.00
60313;DHT22;46158;52.850;6.970;2023-11-22T12:30:48;15.00;85.00
60313;DHT22;46158;52.850;6.970;2023-11-22T12:33:16;15.00;84.80
60313;DHT22;46158;52.850;6.970;2023-11-22T12:35:43;15.10;84.90
60313;DHT22;46158;52.850;6.970;2023-11-22T12:38:10;15.10;84.80
60313;DHT22;46158;52.850;6.970;2023-11-22T12:40:36;15.10;84.70
60313;DHT22;46158;52.850;6.970;2023-11-22T12:43:02;15.10;84.70
60313;DHT22;46158;52.850;6.970;2023-11-22T12:45:33;15.10;84.60
60313;DHT22;46158;52.850;6.970;2023-11-22T12:48:23;15.10;84.60
60313;DHT22;46158;52.850;6.970;2023-11-22T12:50:50;15.10;84.50
60313;DHT22;46158;52.850;6.970;2023-11-22T12:53:16;15.00;84.50
60313;DHT22;46158;52.850;6.970;2023-11-22T12:55:46;15.10;84.60
60313;DHT22;46158;52.850;6.970;2023-11-22T12:58:14;15.10;84.40
60313;DHT22;46158;52.850;6.970;2023-11-22T13:00:41;15.10;84.50
60313;DHT22;46158;52.850;6.970;2023-11-22T13:03:07;15.10;84.30
60313;DHT22;46158;52.850;6.970;2023-11-22T13:05:36;15.00;84.30
60313;DHT22;46158;52.850;6.970;2023-11-22T13:08:02;15.10;84.30
60313;DHT22;46158;52.850;6.970;2023-11-22T13:10:29;15.10;84.30
60313;DHT22;46158;52.850;6.970;2023-11-22T13:12:56;15.10;84.20
60313;DHT22;46158;52.850;6.970;2023-11-22T13:15:22;15.10;84.00
60313;DHT22;46158;52.850;6.970;2023-11-22T13:17:56;15.10;84.00
60313;DHT22;46158;52.850;6.970;2023-11-22T13:20:25;15.10;83.90
60313;DHT22;46158;52.850;6.970;2023-11-22T13:22:54;15.00;83.80
60313;DHT22;46158;52.850;6.970;2023-11-22T13:25:23;15.10;83.80
60313;DHT22;46158;52.850;6.970;2023-11-22T13:27:50;15.10;83.70
60313;DHT22;46158;52.850;6.970;2023-11-22T13:30:17;15.00;83.60
60313;DHT22;46158;52.850;6.970;2023-11-22T13:32:46;15.10;83.60
60313;DHT22;46158;52.850;6.970;2023-11-22T13:35:12;15.00;83.50
60313;DHT22;46158;52.850;6.970;2023-11-22T13:37:43;15.00;83.40
60313;DHT22;46158;52.850;6.970;2023-11-22T13:40:13;15.00;83.40
60313;DHT22;46158;52.850;6.970;2023-11-22T13:42:43;15.00;83.30
60313;DHT22;46158;52.850;6.970;2023-11-22T13:45:11;15.00;83.30
60313;DHT22;46158;52.850;6.970;2023-11-22T13:47:41;15.00;83.30
60313;DHT22;46158;52.850;6.970;2023-11-22T13:50:09;15.00;83.30
60313;DHT22;46158;52.850;6.970;2023-11-22T13:52:35;15.00;83.30
60313;DHT22;46158;52.850;6.970;2023-11-22T13:55:01;14.90;83.30
60313;DHT22;46158;52.850;6.970;2023-11-22T13:57:30;15.00;83.20
60313;DHT22;46158;52.850;6.970;2023-11-22T13:59:57;15.00;83.20
60313;DHT22;46158;52.850;6.970;2023-11-22T14:02:24;15.00;83.10
60313;DHT22;46158;52.850;6.970;2023-11-22T14:04:49;15.00;83.20
60313;DHT22;46158;52.850;6.970;2023-11-22T14:07:16;15.00;83.30
60313;DHT22;46158;52.850;6.970;2023-11-22T14:09:42;15.00;83.30
60313;DHT22;46158;52.850;6.970;2023-11-22T14:12:12;15.00;83.30
60313;DHT22;46158;52.850;6.970;2023-11-22T14:14:38;15.00;83.30
60313;DHT22;46158;52.850;6.970;2023-11-22T14:17:03;15.00;83.40
60313;DHT22;46158;52.850;6.970;2023-11-22T14:19:29;15.00;83.40
60313;DHT22;46158;52.850;6.970;2023-11-22T14:21:55;15.10;83.50
60313;DHT22;46158;52.850;6.970;2023-11-22T14:24:21;15.10;83.40
60313;DHT22;46158;52.850;6.970;2023-11-22T14:26:47;15.10;83.30
60313;DHT22;46158;52.850;6.970;2023-11-22T14:29:14;15.10;83.20
60313;DHT22;46158;52.850;6.970;2023-11-22T14:31:41;15.10;83.10
60313;DHT22;46158;52.850;6.970;2023-11-22T14:34:07;15.10;83.10
60313;DHT22;46158;52.850;6.970;2023-11-22T14:36:33;15.10;83.00
60313;DHT22;46158;52.850;6.970;2023-11-22T14:38:58;15.10;83.00
60313;DHT22;46158;52.850;6.970;2023-11-22T14:41:24;15.10;83.00
60313;DHT22;46158;52.850;6.970;2023-11-22T14:43:50;15.10;82.90
60313;DHT22;46158;52.850;6.970;2023-11-22T14:46:16;15.10;82.90
60313;DHT22;46158;52.850;6.970;2023-11-22T14:48:43;15.00;82.80
60313;DHT22;46158;52.850;6.970;2023-11-22T14:51:09;15.00;82.80
60313;DHT22;46158;52.850;6.970;2023-11-22T14:53:35;15.00;82.80
60313;DHT22;46158;52.850;6.970;2023-11-22T14:56:00;15.00;82.70
60313;DHT22;46158;52.850;6.970;2023-11-22T14:58:28;15.00;82.70
60313;DHT22;46158;52.850;6.970;2023-11-22T15:00:55;15.00;82.70
60313;DHT22;46158;52.850;6.970;2023-11-22T15:03:22;15.00;82.80
60313;DHT22;46158;52.850;6.970;2023-11-22T15:05:50;15.00;82.80
60313;DHT22;46158;52.850;6.970;2023-11-22T15:08:15;15.00;82.90
60313;DHT22;46158;52.850;6.970;2023-11-22T15:10:41;15.00;83.00
60313;DHT22;46158;52.850;6.970;2023-11-22T15:13:07;15.00;82.80
60313;DHT22;46158;52.850;6.970;2023-11-22T15:15:34;15.00;82.80
60313;DHT22;46158;52.850;6.970;2023-11-22T15:18:00;15.00;82.60
60313;DHT22;46158;52.850;6.970;2023-11-22T15:20:26;15.00;82.60
60313;DHT22;46158;52.850;6.970;2023-11-22T15:22:52;15.00;82.60
60313;DHT22;46158;52.850;6.970;2023-11-22T15:25:17;15.00;82.60
60313;DHT22;46158;52.850;6.970;2023-11-22T15:27:46;15.00;82.60
60313;DHT22;46158;52.850;6.970;2023-11-22T15:30:12;15.00;82.40
60313;DHT22;46158;52.850;6.970;2023-11-22T15:32:38;15.00;82.40